createdAt,value
2022-09-10T00:02:10.440Z,16.80
2022-09-10T00:07:12.915Z,16.70
2022-09-10T00:12:15.340Z,16.70
2022-09-10T00:17:17.811Z,16.70
2022-09-10T00:22:20.494Z,16.70
2022-09-10T00:27:23.346Z,16.70
2022-09-10T00:32:25.802Z,16.70
2022-09-10T00:37:28.199Z,16.50
2022-09-10T00:42:30.644Z,16.50
2022-09-10T00:47:37.391Z,16.40
2022-09-10T00:52:40.200Z,16.50
2022-09-10T00:57:44.796Z,16.40
2022-09-10T01:02:48.239Z,16.40
2022-09-10T01:07:51.061Z,16.40
2022-09-10T01:13:19.823Z,16.30
2022-09-10T01:19:00.440Z,16.20
2022-09-10T01:24:39.866Z,16.10
2022-09-10T01:29:55.875Z,16.10
2022-09-10T01:35:17.101Z,16.10
2022-09-10T01:40:29.664Z,16.10
2022-09-10T01:45:51.660Z,15.90
2022-09-10T01:51:10.580Z,16.10
2022-09-10T01:57:04.015Z,16.10
2022-09-10T02:02:31.058Z,16.20
2022-09-10T02:07:36.440Z,16.30
2022-09-10T02:12:40.157Z,16.40
2022-09-10T02:18:01.910Z,16.30
2022-09-10T02:23:06.383Z,16.20
2022-09-10T02:28:12.079Z,16.20
2022-09-10T02:33:16.520Z,16.50
2022-09-10T02:38:19.284Z,16.60
2022-09-10T02:43:21.828Z,16.60
2022-09-10T02:48:27.986Z,16.60
2022-09-10T02:53:32.651Z,16.50
2022-09-10T02:58:39.452Z,16.30
2022-09-10T03:03:43.111Z,16.10
2022-09-10T03:08:45.838Z,16.00
2022-09-10T03:13:48.357Z,16.10
2022-09-10T03:18:52.068Z,16.10
2022-09-10T03:23:56.876Z,16.20
2022-09-10T03:29:03.302Z,16.20
2022-09-10T03:34:12.920Z,16.00
2022-09-10T03:39:18.435Z,15.90
2022-09-10T03:44:21.012Z,15.90
2022-09-10T03:49:23.965Z,15.90
2022-09-10T03:54:26.449Z,16.00
2022-09-10T03:59:29.915Z,16.00
2022-09-10T04:04:37.448Z,16.10
2022-09-10T04:09:40.347Z,16.10
2022-09-10T04:14:45.457Z,16.10
2022-09-10T04:19:51.128Z,16.10
2022-09-10T04:24:53.726Z,16.00
2022-09-10T04:29:57.366Z,16.10
2022-09-10T04:35:02.935Z,16.00
2022-09-10T04:40:06.276Z,15.90
2022-09-10T04:45:11.953Z,16.00
2022-09-10T04:50:15.590Z,16.00
2022-09-10T04:55:40.229Z,15.90
2022-09-10T05:00:43.463Z,15.80
2022-09-10T05:05:48.033Z,15.90
2022-09-10T05:10:50.830Z,15.80
2022-09-10T05:15:53.447Z,15.70
2022-09-10T05:20:57.160Z,15.90
2022-09-10T05:25:59.939Z,15.80
2022-09-10T05:31:03.405Z,15.80
2022-09-10T05:36:09.380Z,15.90
2022-09-10T05:41:14.037Z,15.90
2022-09-10T05:46:24.380Z,15.70
2022-09-10T05:51:30.813Z,15.80
2022-09-10T05:56:38.148Z,15.70
2022-09-10T06:01:40.647Z,15.70
2022-09-10T06:06:43.170Z,15.70
2022-09-10T06:11:49.375Z,15.80
2022-09-10T06:16:54.816Z,15.90
2022-09-10T06:21:59.070Z,15.90
2022-09-10T06:27:02.915Z,15.90
2022-09-10T06:32:07.581Z,15.90
2022-09-10T06:37:10.276Z,16.00
2022-09-10T06:42:13.799Z,16.10
2022-09-10T06:48:25.365Z,15.90
2022-09-10T06:53:03.683Z,15.90
2022-09-10T06:58:06.738Z,15.90
2022-09-10T07:03:11.706Z,16.00
2022-09-10T07:08:20.502Z,16.00
2022-09-10T07:13:27.546Z,15.90
2022-09-10T07:18:31.276Z,16.10
2022-09-10T07:23:33.888Z,16.10
2022-09-10T07:28:37.684Z,16.30
2022-09-10T07:33:42.263Z,16.40
2022-09-10T07:38:45.328Z,16.50
2022-09-10T07:43:53.844Z,16.60
2022-09-10T07:49:01.457Z,16.80
2022-09-10T07:54:05.312Z,16.90
2022-09-10T07:59:15.220Z,17.00
2022-09-10T08:04:23.588Z,17.10
2022-09-10T08:09:28.079Z,17.30
2022-09-10T08:14:31.754Z,17.40
2022-09-10T08:19:34.362Z,17.60
2022-09-10T08:24:37.813Z,17.80
2022-09-10T08:29:40.446Z,17.90
2022-09-10T08:34:46.454Z,17.70
2022-09-10T08:39:49.718Z,17.80
2022-09-10T08:45:03.616Z,18.00
2022-09-10T08:50:20.253Z,18.00
2022-09-10T08:55:29.545Z,18.30
2022-09-10T09:00:39.183Z,18.60
2022-09-10T09:05:49.872Z,18.60
2022-09-10T09:11:07.193Z,18.90
2022-09-10T09:16:44.352Z,19.00
2022-09-10T09:21:54.624Z,18.80
2022-09-10T09:27:10.291Z,19.10
2022-09-10T09:32:20.535Z,19.40
2022-09-10T09:37:29.351Z,19.00
2022-09-10T09:43:09.552Z,19.40
2022-09-10T09:48:15.777Z,19.40
2022-09-10T09:53:25.520Z,19.50
2022-09-10T09:58:31.101Z,19.50
2022-09-10T10:04:03.055Z,19.40
2022-09-10T10:09:15.409Z,19.40
2022-09-10T10:14:20.814Z,19.00
2022-09-10T10:19:32.418Z,19.30
2022-09-10T10:24:35.198Z,19.50
2022-09-10T10:29:39.341Z,19.70
2022-09-10T10:34:47.954Z,20.00
2022-09-10T10:40:22.595Z,19.70
2022-09-10T10:45:58.748Z,20.10
2022-09-10T10:51:05.087Z,19.90
2022-09-10T10:56:17.304Z,19.70
2022-09-10T11:01:23.302Z,19.60
2022-09-10T11:06:31.954Z,19.50
2022-09-10T11:11:45.171Z,19.40
2022-09-10T11:16:58.628Z,19.70
2022-09-10T11:22:16.342Z,19.90
2022-09-10T11:27:41.778Z,20.10
2022-09-10T11:33:05.792Z,21.00
2022-09-10T11:38:26.419Z,21.00
2022-09-10T11:43:59.912Z,21.30
2022-09-10T11:49:26.835Z,21.00
2022-09-10T11:54:34.388Z,20.80
2022-09-10T12:00:01.140Z,20.60
2022-09-10T12:05:16.116Z,20.80
2022-09-10T12:10:53.408Z,21.10
2022-09-10T12:16:02.563Z,21.40
2022-09-10T12:21:16.474Z,21.80
2022-09-10T12:26:22.518Z,21.90
2022-09-10T12:31:24.999Z,22.20
2022-09-10T12:36:27.472Z,22.20
2022-09-10T12:41:29.942Z,22.00
2022-09-10T12:46:44.759Z,22.50
2022-09-10T12:51:50.516Z,22.20
2022-09-10T12:57:20.405Z,22.40
2022-09-10T13:02:30.999Z,22.50
2022-09-10T13:07:45.581Z,22.50
2022-09-10T13:12:51.241Z,22.40
2022-09-10T13:17:54.586Z,22.10
2022-09-10T13:23:09.110Z,22.30
2022-09-10T13:28:35.519Z,22.80
2022-09-10T13:33:56.044Z,22.90
2022-09-10T13:39:26.865Z,22.70
2022-09-10T13:44:45.294Z,22.00
2022-09-10T13:50:17.334Z,22.40
2022-09-10T13:55:26.600Z,22.20
2022-09-10T14:01:00.921Z,22.00
2022-09-10T14:06:16.966Z,21.60
2022-09-10T14:11:25.111Z,21.20
2022-09-10T14:16:38.756Z,21.00
2022-09-10T14:21:42.281Z,20.70
2022-09-10T14:27:06.856Z,20.40
2022-09-10T14:32:36.256Z,20.40
2022-09-10T14:37:38.799Z,20.10
2022-09-10T14:42:41.311Z,20.30
2022-09-10T14:47:52.357Z,20.50
2022-09-10T14:52:55.728Z,20.70
2022-09-10T14:57:59.433Z,20.70
2022-09-10T15:03:02.617Z,20.70
2022-09-10T15:08:05.166Z,20.50
2022-09-10T15:13:11.144Z,20.30
2022-09-10T15:18:14.608Z,20.20
2022-09-10T15:23:18.318Z,19.90
2022-09-10T15:28:21.082Z,19.80
2022-09-10T15:33:23.468Z,19.50
2022-09-10T15:38:25.953Z,19.50
2022-09-10T15:43:28.348Z,19.50
2022-09-10T15:48:33.571Z,19.40
2022-09-10T15:53:36.277Z,19.10
2022-09-10T15:58:39.636Z,19.00
2022-09-10T16:03:51.701Z,19.10
2022-09-10T16:08:57.528Z,18.90
2022-09-10T16:14:04.671Z,18.90
2022-09-10T16:19:07.466Z,18.80
2022-09-10T16:24:10.439Z,18.80
2022-09-10T16:29:15.622Z,18.90
2022-09-10T16:34:19.771Z,18.80
2022-09-10T16:39:22.238Z,18.70
2022-09-10T16:44:24.725Z,18.80
2022-09-10T16:49:27.432Z,18.70
2022-09-10T16:54:31.973Z,18.60
2022-09-10T16:59:35.536Z,18.30
2022-09-10T17:04:38.038Z,18.00
2022-09-10T17:09:40.454Z,18.00
2022-09-10T17:14:42.861Z,17.90
2022-09-10T17:19:45.327Z,17.70
2022-09-10T17:24:49.361Z,17.60
2022-09-10T17:29:51.734Z,17.60
2022-09-10T17:34:54.577Z,17.60
2022-09-10T17:39:57.046Z,17.50
2022-09-10T17:45:01.109Z,17.40
2022-09-10T17:50:03.838Z,17.40
2022-09-10T17:55:06.614Z,17.40
2022-09-10T18:00:10.464Z,17.30
2022-09-10T18:05:13.198Z,17.30
2022-09-10T18:10:16.263Z,17.30
2022-09-10T18:15:19.686Z,17.20
2022-09-10T18:20:25.765Z,17.20
2022-09-10T18:25:32.343Z,17.20
2022-09-10T18:30:34.724Z,17.00
2022-09-10T18:35:37.171Z,16.90
2022-09-10T18:40:39.573Z,16.60
2022-09-10T18:45:42.470Z,16.50
2022-09-10T18:50:44.895Z,16.40
2022-09-10T18:55:47.456Z,16.40
2022-09-10T19:00:50.358Z,16.60
2022-09-10T19:05:52.803Z,16.70
2022-09-10T19:10:59.155Z,16.70
2022-09-10T19:16:03.164Z,16.70
2022-09-10T19:21:05.922Z,16.70
2022-09-10T19:26:10.345Z,16.70
2022-09-10T19:31:15.665Z,16.60
2022-09-10T19:36:19.165Z,16.70
2022-09-10T19:41:33.964Z,16.70
2022-09-10T19:46:37.108Z,16.70
2022-09-10T19:51:43.797Z,16.40
2022-09-10T19:56:46.387Z,16.30
2022-09-10T20:01:49.123Z,16.20
2022-09-10T20:06:52.314Z,16.20
2022-09-10T20:11:54.704Z,16.20
2022-09-10T20:16:57.094Z,16.20
2022-09-10T20:21:59.508Z,16.20
2022-09-10T20:27:01.868Z,16.20
2022-09-10T20:32:04.458Z,16.20
2022-09-10T20:37:07.019Z,16.10
2022-09-10T20:42:09.952Z,16.20
2022-09-10T20:47:12.583Z,16.10
2022-09-10T20:52:14.968Z,15.90
2022-09-10T20:57:17.392Z,15.80
2022-09-10T21:02:20.322Z,15.70
2022-09-10T21:07:23.511Z,15.60
2022-09-10T21:12:25.955Z,15.60
2022-09-10T21:17:28.370Z,15.70
2022-09-10T21:22:30.986Z,15.80
2022-09-10T21:27:33.831Z,15.70
2022-09-10T21:32:36.285Z,15.70
2022-09-10T21:37:39.397Z,15.70
2022-09-10T21:42:41.815Z,15.70
2022-09-10T21:47:44.176Z,15.70
2022-09-10T21:52:46.569Z,15.60
2022-09-10T21:57:49.005Z,15.50
2022-09-10T22:02:51.979Z,15.60
2022-09-10T22:07:54.655Z,15.60
2022-09-10T22:12:57.320Z,15.70
2022-09-10T22:18:00.007Z,15.70
2022-09-10T22:23:03.583Z,15.60
2022-09-10T22:28:06.469Z,15.80
2022-09-10T22:33:08.937Z,15.80
2022-09-10T22:38:16.844Z,15.80
2022-09-10T22:43:21.948Z,15.80
2022-09-10T22:48:24.650Z,15.90
2022-09-10T22:53:26.984Z,15.90
2022-09-10T22:58:29.350Z,15.70
2022-09-10T23:03:32.330Z,15.90
2022-09-10T23:08:36.382Z,15.80
2022-09-10T23:13:39.432Z,15.90
2022-09-10T23:18:43.185Z,15.70
2022-09-10T23:23:48.181Z,15.70
2022-09-10T23:28:50.791Z,15.70
2022-09-10T23:33:55.915Z,15.60
2022-09-10T23:38:59.185Z,15.50
2022-09-10T23:44:01.794Z,15.60
2022-09-10T23:49:05.064Z,15.50
2022-09-10T23:54:08.849Z,15.50
2022-09-10T23:59:11.633Z,15.70
